createdAt,value
2019-04-20T00:02:23.385Z,28.73
2019-04-20T00:04:51.441Z,28.02
2019-04-20T00:07:25.693Z,27.65
2019-04-20T00:09:57.585Z,27.45
2019-04-20T00:12:34.173Z,28.95
2019-04-20T00:14:50.629Z,27.62
2019-04-20T00:17:19.994Z,29.57
2019-04-20T00:20:15.560Z,28.47
2019-04-20T00:23:22.635Z,29.48
2019-04-20T00:26:16.166Z,29.87
2019-04-20T00:28:56.140Z,31.17
2019-04-20T00:31:28.319Z,31.52
2019-04-20T00:33:54.921Z,31.35
2019-04-20T00:36:11.951Z,32.13
2019-04-20T00:39:03.853Z,32.13
2019-04-20T00:41:35.163Z,33.13
2019-04-20T00:44:06.932Z,33.78
2019-04-20T00:46:39.679Z,33.67
2019-04-20T00:49:16.421Z,33.38
2019-04-20T00:51:48.053Z,33.63
2019-04-20T00:54:02.584Z,33.57
2019-04-20T00:56:31.335Z,33.98
2019-04-20T00:59:13.032Z,33.38
2019-04-20T01:01:49.737Z,33.80
2019-04-20T01:04:19.823Z,33.48
2019-04-20T01:06:53.930Z,33.38
2019-04-20T01:12:12.486Z,32.80
2019-04-20T01:14:43.361Z,31.77
2019-04-20T01:17:26.761Z,32.67
2019-04-20T01:19:55.212Z,34.05
2019-04-20T01:22:27.257Z,33.00
2019-04-20T01:24:55.007Z,32.85
2019-04-20T01:27:38.737Z,32.93
2019-04-20T01:30:06.959Z,32.45
2019-04-20T01:32:36.022Z,34.08
2019-04-20T01:35:05.849Z,32.58
2019-04-20T01:37:36.532Z,33.20
2019-04-20T01:39:58.854Z,33.18
2019-04-20T01:42:25.593Z,33.00
2019-04-20T01:44:56.673Z,33.65
2019-04-20T01:47:33.194Z,34.98
2019-04-20T01:50:01.765Z,35.03
2019-04-20T01:52:28.718Z,35.28
2019-04-20T01:55:24.470Z,35.38
2019-04-20T01:58:00.424Z,36.05
2019-04-20T02:03:36.935Z,35.48
2019-04-20T02:06:07.467Z,35.15
2019-04-20T02:08:33.013Z,33.50
2019-04-20T02:11:04.346Z,35.55
2019-04-20T02:13:41.220Z,34.98
2019-04-20T02:18:44.155Z,33.65
2019-04-20T02:21:20.879Z,34.78
2019-04-20T02:23:40.885Z,34.50
2019-04-20T02:26:03.505Z,34.00
2019-04-20T02:28:56.863Z,33.70
2019-04-20T02:31:44.522Z,34.00
2019-04-20T02:41:57.522Z,34.08
2019-04-20T02:44:35.688Z,34.27
2019-04-20T02:46:55.851Z,35.20
2019-04-20T02:51:52.690Z,34.35
2019-04-20T02:57:03.415Z,32.60
2019-04-20T03:01:51.883Z,35.43
2019-04-20T03:03:58.466Z,36.00
2019-04-20T03:06:36.310Z,34.05
2019-04-20T03:09:15.174Z,34.85
2019-04-20T03:11:54.032Z,34.13
2019-04-20T03:14:14.941Z,33.73
2019-04-20T03:16:45.559Z,34.20
2019-04-20T03:19:14.170Z,34.95
2019-04-20T03:21:51.364Z,33.13
2019-04-20T03:24:23.472Z,33.90
2019-04-20T03:26:40.577Z,33.75
2019-04-20T03:37:30.606Z,33.55
2019-04-20T03:39:52.641Z,33.42
2019-04-20T03:42:10.784Z,33.30
2019-04-20T03:44:48.311Z,34.73
2019-04-20T03:47:13.643Z,34.90
2019-04-20T03:50:02.701Z,35.35
2019-04-20T03:52:36.539Z,36.10
2019-04-20T03:55:16.560Z,35.20
2019-04-20T03:57:54.225Z,34.85
2019-04-20T04:00:22.040Z,35.85
2019-04-20T04:03:13.633Z,35.10
2019-04-20T04:05:32.444Z,35.40
2019-04-20T04:08:01.236Z,36.48
2019-04-20T04:10:30.507Z,35.83
2019-04-20T04:13:09.985Z,36.90
2019-04-20T04:16:05.108Z,37.25
2019-04-20T04:18:37.299Z,37.90
2019-04-20T04:21:07.655Z,37.23
2019-04-20T04:23:44.768Z,36.25
2019-04-20T04:26:16.666Z,36.42
2019-04-20T04:28:47.517Z,36.97
2019-04-20T04:31:22.986Z,36.80
2019-04-20T04:33:56.925Z,38.40
2019-04-20T04:36:17.699Z,37.55
2019-04-20T04:38:56.087Z,37.25
2019-04-20T04:43:53.994Z,38.58
2019-04-20T04:46:05.939Z,39.33
2019-04-20T04:48:38.864Z,38.95
2019-04-20T04:51:12.875Z,39.95
2019-04-20T04:54:02.870Z,38.27
2019-04-20T04:56:26.815Z,39.20
2019-04-20T04:58:56.100Z,39.70
2019-04-20T05:01:28.781Z,40.20
2019-04-20T05:06:41.416Z,40.58
2019-04-20T05:09:00.122Z,40.23
2019-04-20T05:11:26.338Z,41.33
2019-04-20T05:14:02.217Z,40.30
2019-04-20T05:17:01.572Z,42.05
2019-04-20T05:19:23.443Z,42.03
2019-04-20T05:21:59.845Z,41.05
2019-04-20T05:24:51.831Z,41.48
2019-04-20T05:32:41.331Z,40.12
2019-04-20T05:35:21.501Z,42.53
2019-04-20T05:40:25.096Z,40.97
2019-04-20T05:42:52.457Z,41.77
2019-04-20T05:45:22.110Z,42.05
2019-04-20T05:47:55.287Z,40.83
2019-04-20T05:50:23.254Z,41.77
2019-04-20T05:53:03.255Z,41.30
2019-04-20T05:55:31.889Z,41.48
2019-04-20T06:00:33.946Z,38.42
2019-04-20T06:03:02.337Z,38.60
2019-04-20T06:05:36.414Z,38.50
2019-04-20T06:07:59.096Z,38.95
2019-04-20T06:10:32.528Z,38.78
2019-04-20T06:13:00.282Z,38.35
2019-04-20T06:15:47.733Z,37.38
2019-04-20T06:18:24.245Z,37.48
2019-04-20T06:21:02.276Z,37.95
2019-04-20T06:29:02.913Z,36.20
2019-04-20T06:31:36.012Z,36.30
2019-04-20T06:39:20.428Z,34.92
2019-04-20T06:44:26.391Z,35.23
2019-04-20T06:46:58.761Z,33.70
2019-04-20T06:52:00.426Z,34.40
2019-04-20T06:54:21.824Z,33.38
2019-04-20T06:57:00.189Z,34.30
2019-04-20T06:59:38.746Z,33.33
2019-04-20T07:02:11.947Z,34.33
2019-04-20T07:04:43.297Z,33.45
2019-04-20T07:07:19.203Z,32.73
2019-04-20T07:12:03.061Z,31.02
2019-04-20T07:14:31.414Z,30.85
2019-04-20T07:19:55.893Z,30.02
2019-04-20T07:25:01.172Z,29.95
2019-04-20T07:27:29.452Z,30.17
2019-04-20T07:30:03.494Z,29.15
2019-04-20T07:32:23.986Z,29.95
2019-04-20T07:35:01.456Z,29.12
2019-04-20T07:40:07.716Z,28.27
2019-04-20T07:42:35.060Z,27.17
2019-04-20T07:45:07.443Z,28.75
2019-04-20T07:47:41.635Z,28.02
2019-04-20T07:50:01.988Z,27.52
2019-04-20T07:52:14.432Z,28.23
2019-04-20T07:55:28.525Z,26.20
2019-04-20T07:57:31.035Z,26.70
2019-04-20T08:00:00.378Z,26.60
2019-04-20T08:02:57.355Z,24.70
2019-04-20T08:05:33.605Z,25.12
2019-04-20T08:08:02.647Z,25.00
2019-04-20T08:10:33.779Z,25.90
2019-04-20T08:13:21.576Z,24.40
2019-04-20T08:15:50.234Z,23.98
2019-04-20T08:18:16.649Z,24.02
2019-04-20T08:20:42.848Z,23.40
2019-04-20T08:23:12.980Z,24.47
2019-04-20T08:25:30.616Z,23.75
2019-04-20T08:28:16.678Z,23.40
2019-04-20T08:31:00.856Z,23.98
2019-04-20T08:36:22.878Z,23.10
2019-04-20T08:41:20.561Z,22.95
2019-04-20T08:44:21.449Z,21.68
2019-04-20T08:46:26.542Z,23.20
2019-04-20T08:48:59.757Z,23.15
2019-04-20T08:51:26.014Z,22.15
2019-04-20T08:53:51.741Z,22.35
2019-04-20T08:56:18.785Z,22.67
2019-04-20T08:58:36.237Z,23.38
2019-04-20T09:01:08.412Z,22.80
2019-04-20T09:06:15.262Z,22.05
2019-04-20T09:08:46.659Z,22.95
2019-04-20T09:11:19.732Z,21.68
2019-04-20T09:13:43.462Z,22.02
2019-04-20T09:16:06.725Z,21.62
2019-04-20T09:18:49.381Z,21.40
2019-04-20T09:21:20.020Z,20.95
2019-04-20T09:23:57.668Z,21.95
2019-04-20T09:26:26.999Z,22.27
2019-04-20T09:28:54.293Z,21.50
2019-04-20T09:31:31.646Z,21.33
2019-04-20T09:34:21.898Z,21.97
2019-04-20T09:36:51.341Z,22.25
2019-04-20T09:39:21.357Z,22.17
2019-04-20T09:41:59.652Z,21.75
2019-04-20T09:44:15.718Z,21.80
2019-04-20T09:46:49.796Z,20.80
2019-04-20T09:49:26.553Z,20.15
2019-04-20T09:52:01.489Z,20.50
2019-04-20T09:54:34.044Z,20.30
2019-04-20T09:57:03.247Z,20.55
2019-04-20T09:59:33.155Z,20.90
2019-04-20T10:01:50.810Z,20.23
2019-04-20T10:04:15.883Z,18.27
2019-04-20T10:06:45.557Z,19.42
2019-04-20T10:09:15.660Z,18.95
2019-04-20T10:11:45.959Z,19.17
2019-04-20T10:14:14.527Z,18.00
2019-04-20T10:16:44.114Z,19.52
2019-04-20T10:19:13.672Z,19.13
2019-04-20T10:21:43.578Z,16.93
2019-04-20T10:24:12.565Z,18.10
2019-04-20T10:26:41.114Z,18.35
2019-04-20T10:29:09.932Z,17.87
2019-04-20T10:31:46.966Z,18.42
2019-04-20T10:34:09.481Z,17.65
2019-04-20T10:36:39.711Z,18.42
2019-04-20T10:39:09.053Z,17.70
2019-04-20T10:41:45.282Z,16.15
2019-04-20T10:44:09.070Z,17.70
2019-04-20T10:46:38.780Z,17.05
2019-04-20T10:49:09.194Z,15.97
2019-04-20T10:51:37.870Z,16.15
2019-04-20T10:54:06.732Z,16.62
2019-04-20T10:56:35.337Z,15.70
2019-04-20T10:59:03.851Z,15.55
2019-04-20T11:01:33.678Z,15.15
2019-04-20T11:04:03.015Z,16.07
2019-04-20T11:06:32.365Z,16.07
2019-04-20T11:09:01.028Z,16.10
2019-04-20T11:11:31.712Z,15.80
2019-04-20T11:14:06.780Z,15.05
2019-04-20T11:16:30.644Z,14.65
2019-04-20T11:18:59.233Z,14.07
2019-04-20T11:21:28.245Z,14.38
2019-04-20T11:23:58.325Z,13.95
2019-04-20T11:26:28.484Z,13.45
2019-04-20T11:28:57.955Z,12.95
2019-04-20T11:31:35.663Z,12.93
2019-04-20T11:36:25.332Z,13.72
2019-04-20T11:38:54.460Z,13.18
2019-04-20T11:41:26.113Z,14.03
2019-04-20T11:43:53.825Z,13.85
2019-04-20T11:46:22.839Z,13.90
2019-04-20T11:48:51.810Z,13.57
2019-04-20T11:51:21.535Z,12.98
2019-04-20T11:53:50.248Z,12.18
2019-04-20T11:56:23.964Z,12.98
2019-04-20T11:58:49.166Z,12.50
2019-04-20T12:01:23.430Z,14.00
2019-04-20T12:03:58.395Z,13.60
2019-04-20T12:06:21.069Z,12.85
2019-04-20T12:11:28.039Z,13.32
2019-04-20T12:13:48.970Z,11.68
2019-04-20T12:16:17.555Z,11.75
2019-04-20T12:18:46.406Z,12.37
2019-04-20T12:21:14.963Z,12.05
2019-04-20T12:23:44.532Z,11.73
2019-04-20T12:26:13.156Z,10.40
2019-04-20T12:28:41.742Z,11.35
2019-04-20T12:31:13.708Z,12.18
2019-04-20T12:33:40.551Z,11.12
2019-04-20T12:36:10.361Z,11.33
2019-04-20T12:38:39.179Z,10.48
2019-04-20T12:41:11.021Z,10.93
2019-04-20T12:43:38.706Z,11.80
2019-04-20T12:46:07.682Z,9.13
2019-04-20T12:48:37.627Z,9.78
2019-04-20T12:51:06.268Z,10.32
2019-04-20T12:53:34.988Z,11.33
2019-04-20T12:56:04.409Z,11.43
2019-04-20T12:58:33.003Z,11.05
2019-04-20T13:01:02.589Z,10.72
2019-04-20T13:03:31.763Z,9.70
2019-04-20T13:06:01.717Z,11.43
2019-04-20T13:11:02.577Z,10.85
2019-04-20T13:13:32.881Z,10.63
2019-04-20T13:16:05.480Z,11.20
2019-04-20T13:18:39.237Z,11.10
2019-04-20T13:21:09.188Z,11.05
2019-04-20T13:23:37.873Z,11.10
2019-04-20T13:26:08.746Z,12.28
2019-04-20T13:28:37.107Z,12.63
2019-04-20T13:31:06.126Z,12.65
2019-04-20T13:33:34.835Z,10.88
2019-04-20T13:36:04.066Z,11.38
2019-04-20T13:38:34.144Z,12.30
2019-04-20T13:41:03.956Z,12.55
2019-04-20T13:46:00.837Z,11.50
2019-04-20T13:48:30.987Z,11.55
2019-04-20T13:51:00.212Z,11.05
2019-04-20T13:53:29.657Z,11.35
2019-04-20T13:55:59.240Z,10.80
2019-04-20T14:01:22.973Z,12.13
2019-04-20T14:04:05.259Z,11.68
2019-04-20T14:06:35.274Z,10.88
2019-04-20T14:09:05.633Z,11.50
2019-04-20T14:11:34.154Z,10.50
2019-04-20T14:19:02.887Z,11.08
2019-04-20T14:21:32.196Z,11.50
2019-04-20T14:24:01.337Z,12.43
2019-04-20T14:26:30.680Z,12.18
2019-04-20T14:28:59.267Z,11.63
2019-04-20T14:31:28.173Z,11.48
2019-04-20T14:33:57.238Z,11.30
2019-04-20T14:36:26.551Z,10.50
2019-04-20T14:38:56.066Z,10.75
2019-04-20T14:43:53.254Z,9.58
2019-04-20T14:46:22.998Z,10.40
2019-04-20T14:48:52.443Z,10.00
2019-04-20T14:51:21.533Z,9.25
2019-04-20T14:53:51.494Z,10.40
2019-04-20T14:56:20.159Z,11.18
2019-04-20T14:58:56.129Z,11.15
2019-04-20T15:01:30.343Z,10.20
2019-04-20T15:04:04.766Z,10.18
2019-04-20T15:06:29.841Z,10.10
2019-04-20T15:08:58.852Z,11.03
2019-04-20T15:11:27.468Z,10.60
2019-04-20T15:13:56.431Z,10.45
2019-04-20T15:16:26.496Z,10.13
2019-04-20T15:18:57.971Z,10.58
2019-04-20T15:21:31.416Z,10.72
2019-04-20T15:23:59.963Z,10.03
2019-04-20T15:26:28.684Z,10.25
2019-04-20T15:28:57.278Z,9.93
2019-04-20T15:31:26.366Z,10.10
2019-04-20T15:33:55.358Z,9.88
2019-04-20T15:36:24.232Z,8.95
2019-04-20T15:38:53.342Z,8.47
2019-04-20T15:41:23.143Z,8.93
2019-04-20T15:43:52.907Z,9.28
2019-04-20T15:46:21.832Z,10.82
2019-04-20T15:48:55.789Z,10.13
2019-04-20T15:51:25.814Z,9.18
2019-04-20T15:53:55.593Z,10.58
2019-04-20T15:56:24.826Z,11.00
2019-04-20T15:58:54.545Z,11.05
2019-04-20T16:01:26.000Z,11.40
2019-04-20T16:03:57.316Z,11.60
2019-04-20T16:06:27.247Z,10.68
2019-04-20T16:08:57.809Z,10.48
2019-04-20T16:13:56.228Z,10.65
2019-04-20T16:16:25.717Z,11.30
2019-04-20T16:18:55.028Z,11.25
2019-04-20T16:21:27.629Z,10.80
2019-04-20T16:23:58.917Z,10.38
2019-04-20T16:26:47.316Z,9.70
2019-04-20T16:29:17.564Z,9.68
2019-04-20T16:31:48.419Z,10.68
2019-04-20T16:34:16.410Z,10.28
2019-04-20T16:36:46.268Z,9.73
2019-04-20T16:39:16.402Z,10.30
2019-04-20T16:41:46.319Z,9.63
2019-04-20T16:44:15.660Z,9.58
2019-04-20T16:46:44.319Z,10.85
2019-04-20T16:49:13.031Z,10.03
2019-04-20T16:51:42.932Z,9.80
2019-04-20T16:54:11.987Z,9.78
2019-04-20T16:56:40.599Z,9.83
2019-04-20T16:59:11.602Z,9.83
2019-04-20T17:01:40.489Z,9.93
2019-04-20T17:04:13.570Z,9.23
2019-04-20T17:06:42.277Z,9.75
2019-04-20T17:09:12.172Z,9.20
2019-04-20T17:11:41.544Z,8.60
2019-04-20T17:14:10.520Z,9.00
2019-04-20T17:16:39.690Z,10.70
2019-04-20T17:19:09.732Z,9.95
2019-04-20T17:21:38.440Z,11.43
2019-04-20T17:24:07.326Z,8.65
2019-04-20T17:26:43.541Z,8.25
2019-04-20T17:29:17.883Z,8.33
2019-04-20T17:32:05.367Z,9.53
2019-04-20T17:34:51.610Z,10.53
2019-04-20T17:37:04.562Z,10.15
2019-04-20T17:39:47.452Z,9.55
2019-04-20T17:42:19.957Z,12.18
2019-04-20T17:44:47.054Z,11.97
2019-04-20T17:47:29.109Z,14.13
2019-04-20T17:49:57.685Z,12.82
2019-04-20T17:55:57.277Z,13.93
2019-04-20T17:58:29.839Z,14.13
2019-04-20T18:01:04.976Z,12.47
2019-04-20T18:06:30.494Z,12.80
2019-04-20T18:08:57.853Z,13.62
2019-04-20T18:11:14.468Z,14.53
2019-04-20T18:13:37.481Z,14.20
2019-04-20T18:16:32.619Z,19.62
2019-04-20T18:18:58.515Z,22.65
2019-04-20T18:21:21.154Z,19.62
2019-04-20T18:23:51.757Z,15.75
2019-04-20T18:26:38.128Z,22.30
2019-04-20T18:29:15.019Z,15.40
2019-04-20T18:31:23.775Z,16.35
2019-04-20T18:33:54.177Z,16.00
2019-04-20T18:36:28.885Z,17.82
2019-04-20T18:38:58.534Z,18.45
2019-04-20T18:41:30.757Z,18.52
2019-04-20T18:43:57.415Z,17.95
2019-04-20T18:49:10.302Z,18.52
2019-04-20T18:51:23.886Z,17.73
2019-04-20T18:53:53.889Z,17.92
2019-04-20T18:56:28.531Z,17.17
2019-04-20T18:58:53.413Z,18.57
2019-04-20T19:01:29.544Z,17.92
2019-04-20T19:03:53.933Z,17.77
2019-04-20T19:06:23.466Z,17.60
2019-04-20T19:08:53.695Z,18.67
2019-04-20T19:11:24.984Z,18.77
2019-04-20T19:13:59.201Z,19.20
2019-04-20T19:16:46.677Z,19.48
2019-04-20T19:19:12.554Z,22.35
2019-04-20T19:21:54.172Z,23.87
2019-04-20T19:24:27.657Z,24.20
2019-04-20T19:26:57.421Z,20.95
2019-04-20T19:29:30.042Z,20.97
2019-04-20T19:32:11.548Z,19.92
2019-04-20T19:34:36.651Z,19.95
2019-04-20T19:37:09.312Z,20.25
2019-04-20T19:39:39.917Z,18.92
2019-04-20T19:42:08.402Z,20.00
2019-04-20T19:44:38.124Z,19.05
2019-04-20T19:47:15.893Z,19.85
2019-04-20T19:49:35.711Z,20.80
2019-04-20T19:52:25.181Z,20.65
2019-04-20T19:54:46.595Z,21.65
2019-04-20T19:57:11.849Z,22.15
2019-04-20T19:59:37.712Z,21.48
2019-04-20T20:01:58.179Z,21.42
2019-04-20T20:04:26.689Z,23.12
2019-04-20T20:07:02.043Z,23.00
2019-04-20T20:09:25.924Z,24.18
2019-04-20T20:11:57.172Z,28.00
2019-04-20T20:14:32.305Z,30.57
2019-04-20T20:17:08.955Z,29.85
2019-04-20T20:19:38.194Z,31.45
2019-04-20T20:22:08.991Z,29.42
2019-04-20T20:24:27.261Z,32.67
2019-04-20T20:27:02.109Z,30.95
2019-04-20T20:29:34.032Z,26.57
2019-04-20T20:32:10.397Z,27.37
2019-04-20T20:34:35.525Z,27.50
2019-04-20T20:37:00.564Z,27.02
2019-04-20T20:39:31.058Z,26.27
2019-04-20T20:42:13.159Z,26.90
2019-04-20T20:44:40.216Z,27.25
2019-04-20T20:47:18.621Z,26.90
2019-04-20T20:49:48.019Z,27.70
2019-04-20T20:52:18.709Z,27.13
2019-04-20T20:54:41.252Z,27.85
2019-04-20T20:57:06.852Z,27.27
2019-04-20T20:59:41.543Z,25.80
2019-04-20T21:02:06.388Z,24.98
2019-04-20T21:05:05.947Z,25.37
2019-04-20T21:07:34.666Z,24.32
2019-04-20T21:10:04.547Z,25.05
2019-04-20T21:12:36.468Z,24.60
2019-04-20T21:15:10.868Z,24.45
2019-04-20T21:18:17.403Z,23.60
2019-04-20T21:20:46.470Z,24.07
2019-04-20T21:23:06.914Z,24.40
2019-04-20T21:25:33.467Z,23.50
2019-04-20T21:27:57.012Z,21.42
2019-04-20T21:30:32.974Z,22.00
2019-04-20T21:33:00.420Z,20.80
2019-04-20T21:35:26.075Z,21.12
2019-04-20T21:38:00.408Z,20.32
2019-04-20T21:40:32.386Z,20.27
2019-04-20T21:42:59.222Z,19.90
2019-04-20T21:45:30.535Z,20.57
2019-04-20T21:47:56.605Z,22.62
2019-04-20T21:50:42.540Z,19.87
2019-04-20T21:53:06.025Z,19.20
2019-04-20T21:55:25.916Z,20.35
2019-04-20T21:57:57.350Z,19.67
2019-04-20T22:00:44.617Z,19.52
2019-04-20T22:03:11.429Z,20.00
2019-04-20T22:05:40.196Z,21.30
2019-04-20T22:08:11.348Z,21.23
2019-04-20T22:10:38.962Z,20.32
2019-04-20T22:13:07.823Z,20.40
2019-04-20T22:15:45.922Z,20.10
2019-04-20T22:18:12.332Z,20.27
2019-04-20T22:20:50.980Z,20.82
2019-04-20T22:23:21.651Z,20.90
2019-04-20T22:25:53.105Z,20.23
2019-04-20T22:28:08.770Z,19.65
2019-04-20T22:30:37.939Z,20.77
2019-04-20T22:33:08.141Z,21.80
2019-04-20T22:36:20.337Z,22.52
2019-04-20T22:39:09.582Z,21.23
2019-04-20T22:41:45.779Z,21.95
2019-04-20T22:44:17.385Z,21.87
2019-04-20T22:46:44.023Z,23.45
2019-04-20T22:49:26.645Z,21.30
2019-04-20T22:51:53.224Z,21.48
2019-04-20T22:54:27.921Z,22.30
2019-04-20T22:56:54.835Z,21.68
2019-04-20T22:59:20.325Z,20.95
2019-04-20T23:01:49.863Z,20.45
2019-04-20T23:04:14.973Z,21.40
2019-04-20T23:06:49.774Z,20.72
2019-04-20T23:09:16.790Z,21.30
2019-04-20T23:11:45.491Z,22.27
2019-04-20T23:14:14.372Z,22.40
2019-04-20T23:16:48.466Z,21.90
2019-04-20T23:19:14.218Z,22.82
2019-04-20T23:21:48.727Z,24.85
2019-04-20T23:24:15.342Z,25.77
2019-04-20T23:26:46.893Z,29.25
2019-04-20T23:29:15.285Z,28.05
2019-04-20T23:31:50.555Z,27.05
2019-04-20T23:34:19.996Z,28.35
2019-04-20T23:36:47.648Z,27.67
2019-04-20T23:39:14.885Z,25.90
2019-04-20T23:42:07.549Z,24.43
2019-04-20T23:44:56.003Z,24.43
2019-04-20T23:50:40.950Z,23.07
2019-04-20T23:53:14.106Z,22.52
2019-04-20T23:55:27.650Z,24.27
2019-04-20T23:58:10.762Z,22.20
